Time;durP1;ratioP1;P1;durP2;ratioP2;P2;SDS_P1;SDS_P2;PMS_P1;PMS_P2;Temp;Humidity;BMP_temperature;BMP_pressure;BME280_temperature;BME280_humidity;BME280_pressure;Samples;Min_cycle;Max_cycle;Signal;HPM_P1;HPM_P2
2021/08/18 06:08:46;;;;;;;;;35.80;31.20;;;;;28.46;64.00;100839.53;5503683;23;8894;-80
2021/08/18 06:11:43;;;;;;;;;31.20;30.00;;;;;28.53;64.69;100839.31;4993836;28;8848;-78
2021/08/18 06:14:38;;;;;;;;;29.20;28.80;;;;;28.86;63.85;100833.44;4979968;28;9682;-79
2021/08/18 06:17:34;;;;;;;;;29.40;29.00;;;;;28.96;63.53;100828.69;4992067;28;8990;-80
2021/08/18 06:20:29;;;;;;;;;28.60;28.20;;;;;29.17;63.09;100828.03;4993811;28;8832;-80
2021/08/18 06:23:28;;;;;;;;;32.80;31.00;;;;;29.34;62.09;100823.00;4995641;28;9052;-80
2021/08/18 06:26:23;;;;;;;;;27.20;27.20;;;;;29.41;60.98;100821.97;4992976;28;9017;-79
2021/08/18 06:29:20;;;;;;;;;31.80;29.00;;;;;29.56;60.06;100818.19;4973138;28;8866;-78
2021/08/18 06:32:16;;;;;;;;;30.00;29.20;;;;;29.63;57.64;100809.41;4961325;28;8873;-78
2021/08/18 06:35:12;;;;;;;;;35.00;30.80;;;;;29.76;57.94;100811.44;4958969;28;8862;-79
2021/08/18 06:38:08;;;;;;;;;34.00;31.60;;;;;29.76;57.18;100812.22;4987248;28;8912;-78
2021/08/18 06:40:36;;;;;;;;;33.20;31.20;;;;;29.80;56.32;100806.38;4987658;28;8864;-77
2021/08/18 06:43:05;;;;;;;;;29.00;28.40;;;;;29.96;56.46;100803.38;4963384;28;8962;-78
2021/08/18 06:45:33;;;;;;;;;24.40;24.40;;;;;29.95;55.67;100803.81;4992049;28;8899;-77
2021/08/18 06:48:00;;;;;;;;;27.80;27.80;;;;;30.11;56.75;100797.97;4994133;28;8887;-78
2021/08/18 06:50:31;;;;;;;;;27.60;27.60;;;;;29.96;55.69;100794.81;4997466;28;8871;-78
2021/08/18 06:52:59;;;;;;;;;34.20;31.60;;;;;30.21;55.69;100791.06;4976599;28;8886;-77
2021/08/18 06:55:57;;;;;;;;;27.40;27.40;;;;;30.03;54.86;100790.91;5007761;28;9567;-77
2021/08/18 06:58:47;;;;;;;;;28.60;28.60;;;;;29.94;54.52;100788.78;4984867;28;8856;-77
2021/08/18 07:01:16;;;;;;;;;14.40;14.40;;;;;30.01;54.57;100782.81;4981237;28;8962;-77
2021/08/18 07:03:45;;;;;;;;;29.00;28.60;;;;;30.23;54.75;100782.84;4996463;28;8919;-77
2021/08/18 07:06:13;;;;;;;;;29.20;28.80;;;;;30.41;54.51;100771.56;4991561;28;8884;-78
2021/08/18 07:08:40;;;;;;;;;32.60;31.00;;;;;30.59;54.94;100770.84;4993573;28;8898;-78
2021/08/18 07:11:08;;;;;;;;;30.00;29.40;;;;;30.99;53.70;100770.13;5000021;28;8842;-79
2021/08/18 07:14:05;;;;;;;;;26.60;26.60;;;;;31.17;50.77;100775.88;4980565;28;8915;-78
2021/08/18 07:16:38;;;;;;;;;31.80;30.80;;;;;31.11;50.93;100771.25;4991547;28;8897;-78
2021/08/18 07:19:09;;;;;;;;;29.20;28.60;;;;;31.27;50.82;100759.59;4993907;28;8963;-78
2021/08/18 07:22:05;;;;;;;;;33.60;31.00;;;;;31.52;49.66;100762.19;4996240;28;9634;-77
2021/08/18 07:25:01;;;;;;;;;32.20;30.60;;;;;31.66;49.31;100759.97;4995633;28;8871;-78
2021/08/18 07:27:56;;;;;;;;;31.40;30.00;;;;;31.74;50.23;100758.38;4995331;28;8860;-77
2021/08/18 07:30:52;;;;;;;;;34.80;31.00;;;;;31.65;48.88;100747.72;5001399;28;8954;-78
2021/08/18 07:33:47;;;;;;;;;31.40;30.20;;;;;31.59;49.58;100754.56;4994745;28;8875;-78
2021/08/18 07:36:43;;;;;;;;;34.20;30.80;;;;;31.86;49.41;100753.81;4978879;28;8990;-78
2021/08/18 07:39:38;;;;;;;;;26.00;26.00;;;;;32.12;47.58;100752.19;4990343;28;8878;-79
2021/08/18 07:42:34;;;;;;;;;29.40;28.80;;;;;32.10;46.93;100755.53;4991187;28;8880;-78
2021/08/18 07:45:02;;;;;;;;;30.80;29.40;;;;;32.23;46.29;100752.50;4991137;28;8914;-78
2021/08/18 07:47:58;;;;;;;;;30.20;29.00;;;;;32.27;46.39;100750.25;4991361;28;8844;-78
2021/08/18 07:50:53;;;;;;;;;29.80;28.80;;;;;32.44;45.50;100747.88;4976820;28;8888;-77
2021/08/18 07:53:49;;;;;;;;;33.80;30.60;;;;;32.69;45.62;100743.00;4978515;28;8891;-78
2021/08/18 07:56:44;;;;;;;;;32.60;31.00;;;;;32.75;45.15;100749.69;4990712;28;8863;-78
2021/08/18 07:59:26;;;;;;;;;30.20;29.40;;;;;32.95;43.88;100743.41;4998761;28;8959;-79
2021/08/18 08:02:22;;;;;;;;;29.40;28.60;;;;;33.01;43.81;100738.59;5016512;28;8935;-78
2021/08/18 08:05:18;;;;;;;;;26.80;26.80;;;;;33.27;42.99;100730.31;5017947;28;9040;-78
2021/08/18 08:08:13;;;;;;;;;30.20;28.20;;;;;33.32;42.42;100729.66;4998451;28;9675;-78
2021/08/18 08:10:46;;;;;;;;;27.80;27.80;;;;;33.32;42.81;100738.25;4996360;28;8860;-78
2021/08/18 08:13:42;;;;;;;;;30.00;28.00;;;;;33.03;42.24;100731.09;4975565;28;8876;-78
2021/08/18 08:16:24;;;;;;;;;29.00;28.80;;;;;32.96;42.51;100733.53;4980970;28;8860;-79
2021/08/18 08:19:20;;;;;;;;;30.80;29.60;;;;;33.07;42.35;100719.47;4991758;28;8879;-80
2021/08/18 08:22:17;;;;;;;;;27.40;27.40;;;;;33.50;41.60;100726.66;4995408;28;8879;-80
2021/08/18 08:24:45;;;;;;;;;26.40;26.40;;;;;33.13;41.56;100720.38;4997378;28;8852;-78
2021/08/18 08:27:40;;;;;;;;;27.40;27.40;;;;;33.40;42.47;100717.34;4996777;28;8966;-77
2021/08/18 08:30:12;;;;;;;;;29.00;28.40;;;;;33.69;40.97;100710.91;4996645;28;8879;-78
2021/08/18 08:33:02;;;;;;;;;27.20;27.20;;;;;33.59;40.54;100709.41;4991120;28;8914;-79
2021/08/18 08:35:58;;;;;;;;;30.60;29.40;;;;;33.65;41.02;100712.38;5012924;28;8857;-78
2021/08/18 08:38:27;;;;;;;;;29.40;28.40;;;;;33.76;41.02;100700.34;4993413;28;8860;-79
2021/08/18 08:40:55;;;;;;;;;30.20;29.20;;;;;34.14;40.15;100705.25;4996474;28;9577;-80
2021/08/18 08:43:52;;;;;;;;;29.80;28.60;;;;;34.33;38.90;100697.22;4995801;28;8855;-79
2021/08/18 08:46:35;;;;;;;;;33.20;31.00;;;;;34.13;39.42;100692.19;4994581;28;8867;-78
2021/08/18 08:49:02;;;;;;;;;28.60;28.20;;;;;34.45;39.27;100690.41;4995144;28;8918;-78
2021/08/18 08:51:58;;;;;;;;;28.60;27.60;;;;;34.65;38.65;100689.66;4994130;28;8860;-79
2021/08/18 08:54:53;;;;;;;;;30.60;29.00;;;;;34.56;38.38;100681.97;4993686;28;8866;-81
2021/08/18 08:57:27;;;;;;;;;30.40;28.60;;;;;34.45;38.13;100687.53;4994360;28;8951;-78
2021/08/18 09:00:23;;;;;;;;;29.40;28.60;;;;;34.77;36.23;100680.72;4994227;28;9635;-78
2021/08/18 09:03:25;;;;;;;;;33.20;30.80;;;;;35.04;35.57;100676.72;4999203;28;8930;-79
2021/08/18 09:06:21;;;;;;;;;24.40;22.60;;;;;35.06;34.54;100677.00;4994093;28;8860;-79
2021/08/18 09:09:07;;;;;;;;;27.60;27.20;;;;;35.37;33.58;100681.31;4989146;28;8950;-81
2021/08/18 09:12:09;;;;;;;;;15.20;14.60;;;;;35.33;32.81;100669.22;4993689;28;8973;-81
2021/08/18 09:14:36;;;;;;;;;30.00;29.20;;;;;35.38;34.67;100675.06;4995168;28;8874;-81
2021/08/18 09:17:37;;;;;;;;;29.20;27.00;;;;;35.24;34.10;100663.63;4994165;28;8876;-83
2021/08/18 09:20:39;;;;;;;;;26.40;26.00;;;;;35.54;33.63;100665.06;4983361;28;9637;-79
2021/08/18 09:23:11;;;;;;;;;35.40;30.60;;;;;35.35;32.70;100664.56;4948853;28;8901;-83
2021/08/18 09:25:39;;;;;;;;;20.80;19.00;;;;;35.44;32.14;100657.91;4993691;28;8834;-80
2021/08/18 09:28:35;;;;;;;;;22.80;22.80;;;;;35.48;33.36;100658.47;4993348;28;8856;-80
2021/08/18 09:31:30;;;;;;;;;22.20;21.60;;;;;35.85;31.63;100658.59;4988850;28;8868;-81
2021/08/18 09:33:58;;;;;;;;;22.80;22.80;;;;;35.92;30.89;100654.50;4994228;28;8848;-78
2021/08/18 09:37:09;;;;;;;;;21.40;21.40;;;;;35.79;28.81;100643.34;4992914;28;8901;-77
2021/08/18 09:40:23;;;;;;;;;23.80;23.80;;;;;35.77;29.65;100645.16;4986703;28;8851;-78
2021/08/18 09:43:17;;;;;;;;;19.00;19.00;;;;;36.29;29.92;100650.91;4982636;28;9594;-78
2021/08/18 09:46:12;;;;;;;;;20.00;20.00;;;;;36.55;27.81;100651.63;4964342;28;8949;-79
2021/08/18 09:48:42;;;;;;;;;17.60;16.20;;;;;36.69;27.51;100641.25;4993909;28;8878;-79
2021/08/18 09:51:43;;;;;;;;;17.00;15.80;;;;;36.71;25.69;100635.75;4991649;28;8868;-78
2021/08/18 09:54:17;;;;;;;;;20.60;20.20;;;;;36.63;29.32;100632.56;4987055;28;8871;-79
2021/08/18 09:57:12;;;;;;;;;23.60;23.60;;;;;36.64;28.38;100633.38;4992875;28;9739;-79
2021/08/18 10:00:08;;;;;;;;;35.20;28.80;;;;;36.55;26.92;100625.72;4991151;28;8863;-77
2021/08/18 10:03:04;;;;;;;;;19.00;18.40;;;;;36.15;26.93;100627.50;4984640;28;9797;-79
2021/08/18 10:06:00;;;;;;;;;17.40;17.40;;;;;36.06;28.27;100621.94;4992820;28;8852;-80
2021/08/18 10:08:34;;;;;;;;;20.20;20.20;;;;;36.48;29.04;100617.56;4991351;28;8851;-78
2021/08/18 10:11:30;;;;;;;;;22.80;22.80;;;;;36.62;28.56;100622.38;4993165;28;8860;-78
2021/08/18 10:14:25;;;;;;;;;17.80;17.80;;;;;36.93;27.58;100620.72;4992551;28;8881;-79
2021/08/18 10:17:21;;;;;;;;;15.40;15.40;;;;;36.88;26.84;100619.38;4992149;28;8909;-79
2021/08/18 10:20:22;;;;;;;;;17.00;17.00;;;;;36.87;26.01;100611.25;4993112;28;9662;-78
2021/08/18 10:23:18;;;;;;;;;16.80;16.80;;;;;37.35;26.45;100614.09;4987829;28;8867;-78
2021/08/18 10:25:52;;;;;;;;;18.20;18.20;;;;;37.39;26.72;100610.97;4994619;28;8879;-80
2021/08/18 10:29:06;;;;;;;;;20.60;20.60;;;;;37.56;25.82;100608.91;4993856;28;8871;-82
2021/08/18 10:31:41;;;;;;;;;19.20;17.80;;;;;37.30;25.89;100609.06;4994296;28;8862;-78
2021/08/18 10:34:18;;;;;;;;;18.40;18.40;;;;;37.44;24.87;100608.09;4993459;28;8852;-81
2021/08/18 10:37:15;;;;;;;;;15.20;14.40;;;;;37.46;24.25;100599.72;4995149;28;8887;-81
2021/08/18 10:40:14;;;;;;;;;23.20;23.20;;;;;37.06;25.31;100592.22;4993346;28;8852;-83
2021/08/18 10:43:09;;;;;;;;;20.40;20.40;;;;;37.12;26.05;100604.56;4991746;28;8855;-80
2021/08/18 10:46:05;;;;;;;;;25.00;25.00;;;;;37.53;25.61;100601.28;4993992;28;8940;-80
2021/08/18 10:49:02;;;;;;;;;23.60;23.00;;;;;37.64;24.28;100586.09;4991555;28;8875;-80
2021/08/18 10:51:43;;;;;;;;;20.80;20.40;;;;;37.82;24.33;100592.19;4995067;28;8867;-80
2021/08/18 10:54:43;;;;;;;;;21.00;19.40;;;;;37.88;24.40;100588.50;4986756;28;8898;-80
2021/08/18 10:57:40;;;;;;;;;17.40;17.40;;;;;38.14;23.88;100588.25;4997309;28;8977;-80
2021/08/18 11:00:41;;;;;;;;;18.40;17.60;;;;;38.04;25.00;100584.84;4985786;28;8981;-80
2021/08/18 11:03:38;;;;;;;;;15.20;15.20;;;;;37.66;24.77;100577.72;4988194;28;8858;-80
2021/08/18 11:06:52;;;;;;;;;13.60;13.60;;;;;37.74;24.42;100570.13;4991414;28;8895;-78
2021/08/18 11:09:56;;;;;;;;;14.80;14.80;;;;;37.70;24.64;100572.47;4987166;28;8879;-78
2021/08/18 11:12:52;;;;;;;;;18.20;18.20;;;;;37.92;24.20;100577.50;4969050;28;8861;-79
2021/08/18 11:15:41;;;;;;;;;19.40;19.40;;;;;38.22;24.64;100572.75;4994770;28;8852;-79
2021/08/18 11:18:10;;;;;;;;;23.00;23.00;;;;;38.53;24.16;100576.66;4975991;28;8879;-78
2021/08/18 11:20:46;;;;;;;;;20.40;20.40;;;;;38.79;23.23;100568.44;4993243;28;8866;-79
2021/08/18 11:23:23;;;;;;;;;18.80;18.80;;;;;38.67;24.32;100566.88;4987188;28;8892;-80
2021/08/18 11:26:22;;;;;;;;;20.60;20.00;;;;;38.52;23.54;100563.50;4997635;28;8865;-80
2021/08/18 11:29:20;;;;;;;;;17.20;15.80;;;;;38.58;24.91;100565.06;4994895;28;8842;-80
2021/08/18 11:32:24;;;;;;;;;16.20;15.20;;;;;38.41;23.42;100560.63;4993947;28;9595;-79
2021/08/18 11:35:35;;;;;;;;;20.20;20.20;;;;;38.47;24.75;100565.09;4979611;28;8956;-81
2021/08/18 11:38:08;;;;;;;;;16.00;16.00;;;;;38.45;23.15;100553.28;4989524;28;9632;-78
2021/08/18 11:41:03;;;;;;;;;18.40;18.40;;;;;38.50;23.25;100554.59;4991932;28;8895;-79
2021/08/18 11:43:59;;;;;;;;;16.80;16.80;;;;;38.63;24.80;100561.38;4977434;28;8949;-79
2021/08/18 11:46:26;;;;;;;;;16.80;16.80;;;;;38.57;24.70;100551.13;4992625;28;9739;-79
2021/08/18 11:49:02;;;;;;;;;17.80;17.80;;;;;38.57;26.83;100548.25;4998790;28;8868;-79
2021/08/18 11:51:49;;;;;;;;;16.80;16.80;;;;;37.79;26.59;100541.28;4979493;28;8878;-79
2021/08/18 11:54:21;;;;;;;;;20.40;20.40;;;;;37.91;27.52;100535.50;4997710;28;8926;-80
2021/08/18 11:57:19;;;;;;;;;19.60;19.60;;;;;38.04;27.33;100512.69;4995530;28;8901;-79
2021/08/18 12:00:18;;;;;;;;;19.00;18.20;;;;;38.33;25.82;100528.63;4998269;28;8868;-80
2021/08/18 12:02:51;;;;;;;;;18.40;18.40;;;;;38.45;24.79;100527.28;4993121;28;8843;-80
2021/08/18 12:06:01;;;;;;;;;19.80;19.80;;;;;38.68;26.76;100522.22;4971978;28;8884;-81
2021/08/18 12:08:57;;;;;;;;;14.60;14.60;;;;;38.38;26.42;100498.97;4991494;28;8961;-80
2021/08/18 12:11:42;;;;;;;;;20.80;20.80;;;;;38.46;25.29;100511.53;4986840;28;8887;-82
2021/08/18 12:14:49;;;;;;;;;19.80;19.00;;;;;38.58;24.47;100506.50;4995920;28;8882;-83
2021/08/18 12:17:18;;;;;;;;;21.60;21.60;;;;;38.61;23.58;100505.44;4995633;28;8876;-81
2021/08/18 12:20:01;;;;;;;;;18.80;18.80;;;;;39.26;23.48;100506.97;4990829;28;8871;-84
2021/08/18 12:22:49;;;;;;;;;16.20;15.80;;;;;39.56;22.97;100501.22;4993814;28;8871;-83
2021/08/18 12:25:18;;;;;;;;;19.80;19.80;;;;;39.65;22.94;100495.91;4979729;28;8868;-83
2021/08/18 12:28:15;;;;;;;;;20.20;20.00;;;;;39.94;22.16;100500.09;4990165;28;8863;-83
2021/08/18 12:31:11;;;;;;;;;16.60;15.40;;;;;40.07;22.08;100498.69;4991457;28;8862;-84
2021/08/18 12:34:08;;;;;;;;;16.20;15.80;;;;;39.88;21.96;100495.72;4987332;28;8936;-84
2021/08/18 12:37:05;;;;;;;;;19.00;19.00;;;;;40.26;23.46;100487.97;4982287;28;8859;-82
2021/08/18 12:39:59;;;;;;;;;31.40;23.80;;;;;40.12;22.23;100477.59;4995961;28;8894;-82
2021/08/18 12:42:57;;;;;;;;;16.20;16.20;;;;;40.34;22.07;100477.34;4983094;28;8983;-81
2021/08/18 12:45:35;;;;;;;;;19.20;19.20;;;;;40.32;22.55;100479.19;4986287;28;8982;-80
2021/08/18 12:48:32;;;;;;;;;18.60;18.60;;;;;40.46;23.20;100473.00;4995249;28;8950;-80
2021/08/18 12:51:28;;;;;;;;;19.40;19.00;;;;;40.21;22.84;100475.13;4994467;28;8870;-81
2021/08/18 12:54:09;;;;;;;;;21.80;21.80;;;;;40.16;22.79;100463.59;4978823;28;8900;-82
2021/08/18 12:57:08;;;;;;;;;20.40;20.40;;;;;39.63;22.42;100457.25;4995066;28;9632;-83
2021/08/18 13:00:07;;;;;;;;;19.40;18.20;;;;;39.45;23.05;100450.03;4981366;28;8889;-81
2021/08/18 13:03:03;;;;;;;;;18.60;18.60;;;;;39.82;22.12;100448.66;4984605;28;8889;-81
2021/08/18 13:05:58;;;;;;;;;15.40;14.20;;;;;40.48;22.55;100444.25;4988047;28;8871;-81
2021/08/18 13:08:55;;;;;;;;;19.20;19.20;;;;;40.18;22.22;100446.44;4994048;28;9034;-82
2021/08/18 13:11:51;;;;;;;;;14.60;14.60;;;;;40.32;22.38;100451.00;4994468;28;8991;-83
2021/08/18 13:14:40;;;;;;;;;22.80;22.40;;;;;40.62;22.43;100439.31;4966927;28;8889;-84
2021/08/18 13:17:37;;;;;;;;;21.80;21.60;;;;;40.58;22.59;100438.09;4961441;28;8846;-81
2021/08/18 13:20:18;;;;;;;;;21.40;21.40;;;;;40.63;23.29;100440.88;4994708;28;8882;-82
2021/08/18 13:22:57;;;;;;;;;20.00;20.00;;;;;40.46;22.24;100429.53;4994312;28;8843;-84
2021/08/18 13:25:52;;;;;;;;;21.60;21.40;;;;;40.15;23.42;100424.38;5003347;28;8883;-83
2021/08/18 13:28:53;;;;;;;;;17.80;17.80;;;;;40.00;22.17;100422.66;4995842;28;8928;-85
2021/08/18 13:31:49;;;;;;;;;17.80;17.80;;;;;40.28;22.82;100418.69;4992833;28;8901;-83
2021/08/18 13:34:45;;;;;;;;;18.60;18.60;;;;;40.08;22.71;100413.41;4993797;28;8884;-87
2021/08/18 13:37:40;;;;;;;;;17.60;17.60;;;;;39.74;23.27;100410.84;4983259;28;8986;-83
2021/08/18 13:40:36;;;;;;;;;22.20;21.40;;;;;39.99;22.83;100417.41;4993758;28;8876;-85
2021/08/18 13:43:31;;;;;;;;;20.80;20.20;;;;;40.04;23.59;100405.03;5000113;28;9000;-82
2021/08/18 13:45:59;;;;;;;;;23.00;23.00;;;;;39.95;24.40;100411.94;4995437;28;8863;-83
2021/08/18 13:48:56;;;;;;;;;24.60;23.40;;;;;40.11;23.71;100412.31;4991886;28;8894;-83
2021/08/18 13:51:51;;;;;;;;;9.60;9.60;;;;;39.82;24.13;100408.94;4994335;28;8848;-79
2021/08/18 13:54:37;;;;;;;;;29.00;21.60;;;;;39.55;24.68;100410.75;4996025;28;8919;-81
2021/08/18 13:57:32;;;;;;;;;16.80;16.80;;;;;39.17;24.25;100403.97;4981328;28;8866;-80
2021/08/18 14:00:29;;;;;;;;;19.40;19.00;;;;;39.43;24.66;100398.50;4994806;28;8863;-80
2021/08/18 14:03:25;;;;;;;;;19.00;19.00;;;;;39.29;25.22;100396.78;4982744;28;9291;-80
2021/08/18 14:06:20;;;;;;;;;18.80;18.80;;;;;39.23;24.86;100401.84;4981703;28;8849;-80
2021/08/18 14:09:16;;;;;;;;;17.20;17.20;;;;;39.35;25.07;100406.22;4975190;28;8861;-79
2021/08/18 14:12:12;;;;;;;;;20.00;20.00;;;;;39.42;25.10;100405.63;4990428;28;9599;-79
2021/08/18 14:15:08;;;;;;;;;20.40;20.40;;;;;39.29;23.95;100398.91;4974822;28;8861;-79
2021/08/18 14:18:06;;;;;;;;;16.20;16.20;;;;;39.33;24.56;100396.47;4973598;28;8927;-81
2021/08/18 14:20:37;;;;;;;;;18.00;18.00;;;;;38.64;28.09;100391.69;4991223;28;8850;-78
2021/08/18 14:23:04;;;;;;;;;11.00;11.00;;;;;37.94;26.45;100390.13;4975488;28;8863;-78
2021/08/18 14:25:34;;;;;;;;;19.60;19.60;;;;;37.89;28.14;100383.09;4976431;28;8891;-77
2021/08/18 14:28:34;;;;;;;;;25.40;23.80;;;;;37.79;27.45;100376.78;4985559;28;9640;-77
2021/08/18 14:31:31;;;;;;;;;16.80;16.80;;;;;37.46;27.58;100371.09;4974331;28;8841;-78
2021/08/18 14:34:28;;;;;;;;;19.00;18.60;;;;;37.29;27.59;100376.84;4967117;28;8889;-80
2021/08/18 14:37:24;;;;;;;;;20.00;18.40;;;;;37.19;28.33;100375.50;4992877;28;9671;-79
2021/08/18 14:40:05;;;;;;;;;18.40;17.80;;;;;36.92;28.30;100365.56;4959590;28;8893;-75
2021/08/18 14:43:02;;;;;;;;;20.00;20.00;;;;;36.74;28.90;100361.06;4973409;28;8901;-81
2021/08/18 14:45:58;;;;;;;;;18.60;17.80;;;;;36.50;28.55;100352.09;4977455;28;8935;-81
2021/08/18 14:48:54;;;;;;;;;20.20;19.40;;;;;36.52;28.70;100356.03;4974245;28;8865;-80
2021/08/18 14:51:49;;;;;;;;;20.40;19.80;;;;;36.16;28.91;100347.00;4972922;28;8853;-78
2021/08/18 14:54:45;;;;;;;;;25.40;23.00;;;;;35.64;28.13;100353.00;4972969;28;9639;-83
2021/08/18 14:57:41;;;;;;;;;2.40;2.40;;;;;35.45;29.02;100342.44;4973318;28;9607;-80
2021/08/18 15:00:37;;;;;;;;;19.00;19.00;;;;;35.10;29.42;100338.47;4974891;28;8889;-82
2021/08/18 15:03:15;;;;;;;;;20.80;20.80;;;;;34.62;32.60;100338.28;4973720;28;8853;-80
2021/08/18 15:06:10;;;;;;;;;21.00;20.60;;;;;34.39;30.85;100342.19;4975032;28;8853;-81
2021/08/18 15:09:06;;;;;;;;;19.20;17.00;;;;;34.36;30.40;100337.44;4988121;28;8953;-79
2021/08/18 15:12:02;;;;;;;;;18.40;18.40;;;;;34.36;30.39;100331.72;4987622;28;8966;-82
2021/08/18 15:14:58;;;;;;;;;17.80;17.80;;;;;34.31;29.72;100341.81;4991543;28;8886;-81
2021/08/18 15:17:53;;;;;;;;;16.00;16.00;;;;;34.22;29.90;100337.03;4994665;28;8917;-81
2021/08/18 15:20:49;;;;;;;;;24.60;23.60;;;;;34.24;30.51;100336.53;4997715;28;8885;-81
2021/08/18 15:23:18;;;;;;;;;19.60;19.60;;;;;34.17;30.83;100331.22;4997437;28;8871;-82
2021/08/18 15:25:46;;;;;;;;;16.80;16.80;;;;;34.13;30.84;100337.19;4997350;28;9635;-82
2021/08/18 15:28:14;;;;;;;;;16.80;16.80;;;;;33.99;30.70;100323.72;4983012;28;8926;-80
2021/08/18 15:30:42;;;;;;;;;16.40;16.40;;;;;33.99;30.88;100321.63;4980011;28;8839;-80
2021/08/18 15:33:38;;;;;;;;;22.60;21.00;;;;;34.00;30.36;100323.19;4996813;28;9017;-80
2021/08/18 15:36:33;;;;;;;;;17.60;17.60;;;;;33.95;30.32;100329.66;4996949;28;8856;-81
2021/08/18 15:39:29;;;;;;;;;15.40;15.40;;;;;33.81;30.71;100326.81;4973453;28;8835;-81
2021/08/18 15:41:57;;;;;;;;;16.60;16.60;;;;;33.82;31.54;100334.16;4995962;28;9013;-81
2021/08/18 15:44:27;;;;;;;;;18.20;16.60;;;;;33.82;30.76;100332.06;4988708;28;9743;-80
2021/08/18 15:47:22;;;;;;;;;18.00;17.00;;;;;33.77;31.28;100329.91;4985497;28;8869;-80
2021/08/18 15:50:18;;;;;;;;;16.00;16.00;;;;;33.68;31.19;100330.06;4993220;28;8914;-80
2021/08/18 15:53:01;;;;;;;;;22.60;21.60;;;;;33.66;31.48;100324.00;4978910;28;8879;-80
2021/08/18 15:55:56;;;;;;;;;16.40;16.40;;;;;33.68;32.93;100325.09;4994665;28;8926;-81
2021/08/18 15:58:54;;;;;;;;;18.20;18.20;;;;;33.62;32.60;100332.03;4987610;28;8858;-81
2021/08/18 16:01:41;;;;;;;;;18.80;18.80;;;;;33.56;32.57;100328.31;4984631;28;8875;-79
2021/08/18 16:04:09;;;;;;;;;22.60;22.60;;;;;33.52;32.89;100322.00;4996007;28;8890;-80
2021/08/18 16:06:53;;;;;;;;;26.60;26.40;;;;;33.52;34.04;100334.25;4983779;28;8887;-80
2021/08/18 16:09:37;;;;;;;;;25.60;24.80;;;;;33.44;33.52;100333.88;4996582;28;8872;-79
2021/08/18 16:12:25;;;;;;;;;26.60;25.00;;;;;33.38;34.32;100337.94;4984526;28;8866;-79
2021/08/18 16:14:53;;;;;;;;;29.80;26.20;;;;;33.20;34.82;100330.34;4981941;28;8871;-79
2021/08/18 16:17:40;;;;;;;;;26.60;26.60;;;;;33.16;34.46;100329.75;4977134;28;8859;-79
2021/08/18 16:20:09;;;;;;;;;25.20;25.20;;;;;33.14;34.56;100326.59;4985395;28;8900;-81
2021/08/18 16:23:04;;;;;;;;;22.20;21.80;;;;;33.14;35.28;100338.84;5001777;28;8903;-79
2021/08/18 16:26:01;;;;;;;;;25.40;25.00;;;;;33.02;35.15;100339.16;4980756;28;8851;-81
2021/08/18 16:28:57;;;;;;;;;28.40;26.40;;;;;32.89;35.92;100331.66;4995643;28;8871;-81
2021/08/18 16:31:26;;;;;;;;;30.40;28.40;;;;;32.89;36.37;100345.19;4996367;28;8864;-81
2021/08/18 16:34:09;;;;;;;;;30.20;27.20;;;;;32.80;37.22;100337.44;4981100;28;8944;-81
2021/08/18 16:37:05;;;;;;;;;35.40;31.40;;;;;32.76;37.71;100345.47;4995374;28;8899;-82
2021/08/18 16:40:01;;;;;;;;;33.40;31.20;;;;;32.57;35.88;100344.06;4983207;28;9009;-82
2021/08/18 16:42:58;;;;;;;;;32.80;30.60;;;;;32.49;35.86;100345.72;4993913;28;9585;-80
2021/08/18 16:45:53;;;;;;;;;41.60;33.80;;;;;32.47;36.70;100354.03;4978301;28;8860;-82
2021/08/18 16:48:23;;;;;;;;;41.40;35.20;;;;;32.44;36.88;100352.94;4978932;28;8856;-80
2021/08/18 16:51:19;;;;;;;;;43.00;35.40;;;;;32.33;37.73;100361.28;4978543;28;8867;-80
2021/08/18 16:54:14;;;;;;;;;46.00;38.60;;;;;32.19;37.69;100351.34;4995569;28;8859;-79
2021/08/18 16:57:11;;;;;;;;;40.80;34.80;;;;;32.07;38.15;100356.06;4987133;28;8858;-79
2021/08/18 17:00:10;;;;;;;;;48.60;41.00;;;;;32.05;38.92;100361.50;4990918;28;8864;-77
2021/08/18 17:03:06;;;;;;;;;53.60;41.80;;;;;32.00;38.95;100365.00;4981933;28;8854;-80
2021/08/18 17:06:01;;;;;;;;;55.40;43.00;;;;;31.91;38.97;100356.50;4989353;28;9755;-77
2021/08/18 17:08:57;;;;;;;;;60.00;46.00;;;;;31.79;38.76;100366.88;4994280;28;8866;-76
2021/08/18 17:11:52;;;;;;;;;54.80;44.00;;;;;31.66;39.75;100366.28;4998065;28;8841;-77
2021/08/18 17:14:48;;;;;;;;;48.80;38.60;;;;;31.51;39.61;100371.13;4995674;28;8863;-77
2021/08/18 17:17:43;;;;;;;;;50.40;41.60;;;;;31.46;39.56;100380.38;4992790;28;8852;-78
2021/08/18 17:20:25;;;;;;;;;48.80;40.40;;;;;31.38;40.67;100377.09;4978331;28;8860;-78
2021/08/18 17:22:56;;;;;;;;;47.00;39.20;;;;;31.40;41.21;100376.59;4994787;28;8858;-80
2021/08/18 17:25:52;;;;;;;;;48.20;39.00;;;;;31.30;41.95;100380.78;4993744;28;8889;-81
2021/08/18 17:28:37;;;;;;;;;48.00;40.80;;;;;31.19;42.25;100379.16;4993437;28;8949;-80
2021/08/18 17:31:05;;;;;;;;;51.00;42.60;;;;;31.12;42.64;100387.28;4959946;28;8998;-81
2021/08/18 17:33:46;;;;;;;;;55.00;43.60;;;;;30.98;43.79;100385.91;4994378;28;8895;-80
2021/08/18 17:36:42;;;;;;;;;48.00;38.60;;;;;30.96;44.27;100391.28;4979970;28;8884;-81
2021/08/18 17:39:38;;;;;;;;;46.20;39.40;;;;;30.84;45.38;100390.22;4980743;28;8867;-81
2021/08/18 17:42:34;;;;;;;;;53.20;43.80;;;;;30.66;44.55;100388.16;4993163;28;8851;-80
2021/08/18 17:45:29;;;;;;;;;52.00;40.40;;;;;30.55;44.54;100387.84;4994297;28;8854;-80
2021/08/18 17:47:57;;;;;;;;;47.00;39.80;;;;;30.52;45.97;100388.81;4994303;28;9007;-80
2021/08/18 17:50:53;;;;;;;;;45.80;39.60;;;;;30.47;45.46;100386.56;4995059;28;8871;-79
2021/08/18 17:53:49;;;;;;;;;47.00;38.20;;;;;30.31;46.90;100381.19;4980618;28;8914;-80
2021/08/18 17:56:45;;;;;;;;;41.40;35.20;;;;;30.23;47.36;100388.47;4985877;28;9036;-80
2021/08/18 17:59:13;;;;;;;;;43.20;35.80;;;;;30.27;46.69;100389.88;4994220;28;8846;-80
2021/08/18 18:02:09;;;;;;;;;41.40;34.80;;;;;30.20;44.41;100393.03;4994256;28;8876;-79
2021/08/18 18:05:06;;;;;;;;;41.60;34.40;;;;;30.27;44.18;100386.25;4993804;28;8860;-79
2021/08/18 18:08:03;;;;;;;;;35.40;32.20;;;;;30.28;44.10;100396.38;4973142;28;8955;-78
2021/08/18 18:10:59;;;;;;;;;35.40;31.80;;;;;30.28;44.29;100382.91;4983122;28;8885;-78
2021/08/18 18:13:57;;;;;;;;;28.40;28.40;;;;;30.27;44.90;100381.34;4977578;28;8906;-78
2021/08/18 18:16:53;;;;;;;;;32.20;30.60;;;;;30.18;42.07;100387.81;4992735;28;8864;-78
2021/08/18 18:19:50;;;;;;;;;41.40;34.60;;;;;30.22;44.21;100395.44;4993347;28;8875;-80
2021/08/18 18:22:18;;;;;;;;;37.40;32.80;;;;;30.22;43.33;100390.53;4993353;28;8898;-79
2021/08/18 18:25:14;;;;;;;;;42.20;35.00;;;;;30.11;42.90;100388.13;4990195;28;8925;-81
2021/08/18 18:28:09;;;;;;;;;34.80;30.20;;;;;30.10;41.91;100386.56;4993356;28;8851;-80
2021/08/18 18:31:06;;;;;;;;;33.60;31.00;;;;;30.03;41.97;100383.19;4993107;28;8878;-79
2021/08/18 18:34:03;;;;;;;;;21.20;20.60;;;;;30.06;41.85;100382.22;4980608;28;8867;-79
